Time;durP1;ratioP1;P1;durP2;ratioP2;P2;SDS_P1;SDS_P2;PMS_P1;PMS_P2;Temp;Humidity;BMP_temperature;BMP_pressure;BME280_temperature;BME280_humidity;BME280_pressure;Samples;Min_cycle;Max_cycle;Signal;HPM_P1;HPM_P2
2023/08/05 00:02:23;;;;;;;15.93;8.63;;;;;;;;;;5035363;28;20049;-84
2023/08/05 00:05:08;;;;;;;10.02;8.25;;;;;;;;;;5020780;28;20470;-84
2023/08/05 00:07:54;;;;;;;9.38;8.00;;;;;;;;;;5035317;28;20049;-84
2023/08/05 00:10:46;;;;;;;14.30;8.70;;;;;;;;;;5035266;28;20045;-84
2023/08/05 00:13:34;;;;;;;16.00;8.13;;;;;;;;;;5035741;28;20037;-83
2023/08/05 00:16:20;;;;;;;11.60;8.82;;;;;;;;;;5034221;28;20041;-84
2023/08/05 00:19:06;;;;;;;10.95;8.57;;;;;;;;;;5035188;28;20049;-84
2023/08/05 00:21:51;;;;;;;10.02;8.60;;;;;;;;;;5035032;28;20053;-84
2023/08/05 00:24:37;;;;;;;12.77;8.93;;;;;;;;;;5034190;28;20042;-83
2023/08/05 00:27:22;;;;;;;18.92;8.50;;;;;;;;;;5035160;28;20045;-84
2023/08/05 00:30:08;;;;;;;10.98;8.40;;;;;;;;;;5034841;28;20037;-84
2023/08/05 00:32:54;;;;;;;14.60;8.68;;;;;;;;;;5034747;28;20398;-83
2023/08/05 00:35:39;;;;;;;12.27;8.93;;;;;;;;;;5035016;28;20045;-83
2023/08/05 00:38:24;;;;;;;13.60;8.70;;;;;;;;;;5026345;28;20037;-83
2023/08/05 00:41:10;;;;;;;12.77;8.18;;;;;;;;;;5026194;28;20049;-83
2023/08/05 00:43:55;;;;;;;16.65;11.55;;;;;;;;;;5034589;28;20049;-84
2023/08/05 00:46:41;;;;;;;10.50;8.18;;;;;;;;;;5034471;28;20038;-83
2023/08/05 00:49:26;;;;;;;10.20;8.07;;;;;;;;;;5034468;28;20049;-83
2023/08/05 00:52:13;;;;;;;13.20;9.23;;;;;;;;;;5034409;28;20037;-84
2023/08/05 00:54:59;;;;;;;13.93;8.85;;;;;;;;;;5034416;28;20041;-84
2023/08/05 00:57:45;;;;;;;11.43;8.90;;;;;;;;;;5034546;28;20479;-84
2023/08/05 01:00:30;;;;;;;11.57;8.40;;;;;;;;;;5019820;28;20049;-84
2023/08/05 01:03:16;;;;;;;14.15;9.30;;;;;;;;;;5034224;28;20041;-83
2023/08/05 01:06:04;;;;;;;10.85;8.45;;;;;;;;;;5034087;28;20037;-84
2023/08/05 01:08:51;;;;;;;12.70;9.35;;;;;;;;;;5026026;28;20045;-84
2023/08/05 01:11:36;;;;;;;15.27;9.20;;;;;;;;;;5034316;28;20053;-84
2023/08/05 01:14:22;;;;;;;10.32;7.95;;;;;;;;;;5034270;28;20045;-83
2023/08/05 01:17:08;;;;;;;12.63;8.48;;;;;;;;;;5039676;28;20053;-81
2023/08/05 01:19:53;;;;;;;12.18;8.13;;;;;;;;;;5033748;28;20045;-81
2023/08/05 01:22:51;;;;;;;11.30;8.30;;;;;;;;;;5034328;28;20057;-81
2023/08/05 01:25:39;;;;;;;12.05;8.35;;;;;;;;;;5033715;28;20038;-81
2023/08/05 01:28:25;;;;;;;10.10;8.23;;;;;;;;;;5039693;28;20057;-80
2023/08/05 01:31:12;;;;;;;14.70;8.60;;;;;;;;;;5034466;28;20404;-81
2023/08/05 01:34:01;;;;;;;12.40;9.35;;;;;;;;;;5033931;28;20045;-80
2023/08/05 01:36:47;;;;;;;15.13;8.95;;;;;;;;;;5033795;28;20033;-80
2023/08/05 01:39:32;;;;;;;10.55;8.93;;;;;;;;;;5039564;28;20049;-80
2023/08/05 01:42:18;;;;;;;12.63;8.60;;;;;;;;;;5040549;28;20048;-80
2023/08/05 01:45:04;;;;;;;13.50;8.20;;;;;;;;;;5039844;28;20045;-80
2023/08/05 01:47:49;;;;;;;12.40;8.25;;;;;;;;;;5044653;28;20402;-80
2023/08/05 01:50:36;;;;;;;12.25;7.47;;;;;;;;;;5062613;28;20045;-80
2023/08/05 01:53:34;;;;;;;12.30;7.65;;;;;;;;;;5036890;28;20486;-81
2023/08/05 01:56:19;;;;;;;11.25;8.30;;;;;;;;;;5033835;28;20053;-80
2023/08/05 01:59:10;;;;;;;11.48;8.30;;;;;;;;;;5040498;28;20049;-81
2023/08/05 02:01:57;;;;;;;12.48;8.55;;;;;;;;;;5025133;28;20050;-80
2023/08/05 02:04:44;;;;;;;10.50;8.63;;;;;;;;;;5025376;28;20046;-80
2023/08/05 02:07:29;;;;;;;11.30;8.30;;;;;;;;;;5033342;28;20407;-81
2023/08/05 02:10:15;;;;;;;9.13;7.43;;;;;;;;;;5033367;28;20049;-81
2023/08/05 02:13:00;;;;;;;10.55;8.32;;;;;;;;;;5039258;28;20049;-80
2023/08/05 02:15:45;;;;;;;11.35;7.00;;;;;;;;;;5024718;28;20402;-81
2023/08/05 02:18:30;;;;;;;11.15;7.50;;;;;;;;;;5033109;28;20053;-81
2023/08/05 02:21:16;;;;;;;11.55;7.50;;;;;;;;;;5033231;28;20414;-81
2023/08/05 02:24:02;;;;;;;10.35;6.72;;;;;;;;;;5039003;28;20045;-81
2023/08/05 02:26:47;;;;;;;8.80;6.80;;;;;;;;;;5024877;28;20045;-80
2023/08/05 02:29:33;;;;;;;9.50;6.60;;;;;;;;;;5033195;28;20049;-81
2023/08/05 02:32:18;;;;;;;24.75;14.70;;;;;;;;;;5033471;28;20049;-80
2023/08/05 02:35:04;;;;;;;14.50;10.70;;;;;;;;;;5033086;28;20045;-81
2023/08/05 02:37:50;;;;;;;14.90;8.98;;;;;;;;;;5033377;28;20042;-81
2023/08/05 02:40:36;;;;;;;12.80;8.40;;;;;;;;;;5033134;28;20053;-81
2023/08/05 02:43:21;;;;;;;11.95;8.75;;;;;;;;;;5032739;28;20053;-81
2023/08/05 02:46:07;;;;;;;14.93;7.93;;;;;;;;;;5018552;28;20042;-81
2023/08/05 02:48:53;;;;;;;9.73;8.02;;;;;;;;;;5030027;28;20049;-80
2023/08/05 02:51:38;;;;;;;10.32;8.20;;;;;;;;;;5040940;28;20057;-82
2023/08/05 02:54:24;;;;;;;10.95;8.40;;;;;;;;;;5032961;28;20033;-81
2023/08/05 02:57:09;;;;;;;16.00;8.55;;;;;;;;;;5032677;28;20049;-81
2023/08/05 02:59:55;;;;;;;14.55;8.73;;;;;;;;;;5041143;28;20045;-82
2023/08/05 03:02:41;;;;;;;11.70;8.57;;;;;;;;;;5019515;28;20041;-80
2023/08/05 03:05:28;;;;;;;14.70;8.43;;;;;;;;;;5046668;28;20046;-82
2023/08/05 03:08:13;;;;;;;14.27;8.63;;;;;;;;;;5040541;28;20053;-81
2023/08/05 03:11:00;;;;;;;15.07;8.95;;;;;;;;;;5046194;28;20064;-82
2023/08/05 03:13:47;;;;;;;9.27;7.97;;;;;;;;;;5028371;28;20053;-83
2023/08/05 03:16:33;;;;;;;10.98;8.48;;;;;;;;;;5028072;28;20397;-82
2023/08/05 03:19:25;;;;;;;14.35;8.38;;;;;;;;;;5024686;28;20402;-83
2023/08/05 03:22:12;;;;;;;16.48;8.77;;;;;;;;;;5035896;28;20045;-81
2023/08/05 03:25:02;;;;;;;15.15;9.10;;;;;;;;;;5027756;28;20475;-82
2023/08/05 03:27:49;;;;;;;13.13;9.15;;;;;;;;;;5027948;28;20057;-81
2023/08/05 03:30:36;;;;;;;17.63;9.45;;;;;;;;;;5036007;28;20053;-81
2023/08/05 03:33:23;;;;;;;13.32;9.18;;;;;;;;;;5027744;28;20045;-81
2023/08/05 03:36:09;;;;;;;14.43;8.90;;;;;;;;;;5041718;28;20510;-81
2023/08/05 03:38:55;;;;;;;14.55;8.55;;;;;;;;;;5041689;28;20487;-82
2023/08/05 03:41:44;;;;;;;10.98;8.25;;;;;;;;;;5028059;28;20045;-83
2023/08/05 03:44:29;;;;;;;10.52;8.30;;;;;;;;;;5034761;28;20046;-83
2023/08/05 03:47:15;;;;;;;11.90;8.73;;;;;;;;;;5027446;28;20049;-81
2023/08/05 03:50:01;;;;;;;14.52;8.73;;;;;;;;;;5041320;28;20041;-81
2023/08/05 03:52:48;;;;;;;11.02;8.75;;;;;;;;;;5035825;28;20041;-81
2023/08/05 03:55:33;;;;;;;13.05;8.80;;;;;;;;;;5027685;28;20037;-81
2023/08/05 03:58:20;;;;;;;12.05;8.38;;;;;;;;;;5041030;28;20483;-81
2023/08/05 04:01:08;;;;;;;14.02;8.68;;;;;;;;;;5027267;28;20042;-81
2023/08/05 04:03:54;;;;;;;14.25;9.38;;;;;;;;;;5060756;28;20037;-82
2023/08/05 04:06:39;;;;;;;13.20;9.02;;;;;;;;;;5044415;28;20045;-81
2023/08/05 04:09:25;;;;;;;12.98;8.82;;;;;;;;;;5036020;28;20053;-82
2023/08/05 04:12:11;;;;;;;10.48;8.85;;;;;;;;;;5035361;28;20041;-82
2023/08/05 04:14:58;;;;;;;10.90;8.73;;;;;;;;;;5020310;28;20053;-82
2023/08/05 04:17:45;;;;;;;15.50;8.63;;;;;;;;;;5027399;28;20045;-81
2023/08/05 04:20:30;;;;;;;11.50;8.80;;;;;;;;;;5034709;28;20045;-81
2023/08/05 04:23:19;;;;;;;12.55;8.38;;;;;;;;;;5035059;28;20410;-81
2023/08/05 04:26:05;;;;;;;13.52;8.57;;;;;;;;;;5034553;28;20476;-81
2023/08/05 04:28:50;;;;;;;15.73;8.68;;;;;;;;;;5034877;28;20041;-80
2023/08/05 04:31:38;;;;;;;10.90;8.18;;;;;;;;;;5034858;28;20041;-81
2023/08/05 04:34:23;;;;;;;14.50;7.80;;;;;;;;;;5034876;28;20475;-82
2023/08/05 04:37:20;;;;;;;11.88;7.88;;;;;;;;;;5034678;28;20048;-80
2023/08/05 04:40:05;;;;;;;12.82;8.60;;;;;;;;;;5034782;28;20041;-80
2023/08/05 04:42:51;;;;;;;14.50;7.95;;;;;;;;;;5041177;28;20041;-80
2023/08/05 04:45:36;;;;;;;13.15;8.25;;;;;;;;;;5034424;28;20403;-83
2023/08/05 04:48:22;;;;;;;12.60;8.10;;;;;;;;;;5034446;28;20049;-79
2023/08/05 04:51:07;;;;;;;11.63;8.13;;;;;;;;;;5034353;28;20049;-81
2023/08/05 04:53:53;;;;;;;9.00;7.60;;;;;;;;;;5035733;28;20053;-79
2023/08/05 04:56:39;;;;;;;11.00;8.23;;;;;;;;;;5034176;28;20049;-79
2023/08/05 04:59:24;;;;;;;12.07;8.00;;;;;;;;;;5034340;28;20067;-79
2023/08/05 05:02:10;;;;;;;16.40;7.03;;;;;;;;;;5034288;28;20053;-79
2023/08/05 05:04:55;;;;;;;10.15;7.05;;;;;;;;;;5041039;28;20046;-80
2023/08/05 05:07:41;;;;;;;11.60;7.70;;;;;;;;;;5034473;28;20037;-79
2023/08/05 05:10:27;;;;;;;8.52;6.22;;;;;;;;;;5040570;28;20067;-79
2023/08/05 05:13:12;;;;;;;13.00;6.60;;;;;;;;;;5040900;28;20479;-80
2023/08/05 05:15:58;;;;;;;9.75;6.45;;;;;;;;;;5040891;28;20033;-79
2023/08/05 05:18:44;;;;;;;9.65;7.28;;;;;;;;;;5033603;28;20041;-80
2023/08/05 05:21:30;;;;;;;9.75;6.93;;;;;;;;;;5034138;28;20105;-79
2023/08/05 05:24:16;;;;;;;9.93;7.05;;;;;;;;;;5040234;28;20033;-79
2023/08/05 05:27:01;;;;;;;11.30;7.50;;;;;;;;;;5033927;28;20041;-79
2023/08/05 05:29:47;;;;;;;10.02;6.88;;;;;;;;;;5034034;28;20034;-79
2023/08/05 05:32:32;;;;;;;16.33;7.80;;;;;;;;;;5033588;28;20045;-79
2023/08/05 05:35:18;;;;;;;20.38;9.48;;;;;;;;;;5033826;28;20037;-79
2023/08/05 05:38:04;;;;;;;13.02;8.40;;;;;;;;;;5033758;28;20037;-79
2023/08/05 05:40:51;;;;;;;17.45;8.00;;;;;;;;;;5034216;28;20037;-80
2023/08/05 05:43:38;;;;;;;12.95;7.85;;;;;;;;;;5035042;28;20049;-80
2023/08/05 05:46:24;;;;;;;15.23;8.15;;;;;;;;;;5033036;28;20041;-80
2023/08/05 05:49:12;;;;;;;12.98;7.63;;;;;;;;;;5025169;28;20041;-80
2023/08/05 05:51:58;;;;;;;15.43;8.65;;;;;;;;;;5040019;28;20041;-81
2023/08/05 05:54:43;;;;;;;16.30;8.80;;;;;;;;;;5033422;28;20033;-81
2023/08/05 05:57:29;;;;;;;18.58;8.90;;;;;;;;;;5033681;28;20049;-80
2023/08/05 06:00:15;;;;;;;13.68;6.70;;;;;;;;;;5033200;28;20041;-80
2023/08/05 06:03:00;;;;;;;10.43;6.40;;;;;;;;;;5033369;28;20414;-81
2023/08/05 06:05:45;;;;;;;12.98;6.38;;;;;;;;;;5033256;28;20038;-81
2023/08/05 06:08:31;;;;;;;10.60;6.38;;;;;;;;;;5038947;28;20407;-81
2023/08/05 06:11:16;;;;;;;12.95;6.30;;;;;;;;;;5025141;28;20479;-81
2023/08/05 06:14:01;;;;;;;11.40;6.22;;;;;;;;;;5039966;28;20041;-81
2023/08/05 06:16:47;;;;;;;10.50;6.68;;;;;;;;;;5041360;28;20026;-81
2023/08/05 06:19:32;;;;;;;15.45;7.57;;;;;;;;;;5036400;28;20053;-83
2023/08/05 06:22:18;;;;;;;10.80;7.35;;;;;;;;;;5017949;28;20038;-82
2023/08/05 06:25:04;;;;;;;9.60;6.80;;;;;;;;;;5017698;28;20042;-81
2023/08/05 06:27:49;;;;;;;10.80;7.68;;;;;;;;;;5017457;28;20148;-82
2023/08/05 06:30:35;;;;;;;11.10;7.53;;;;;;;;;;5017514;28;20050;-81
2023/08/05 06:33:21;;;;;;;11.77;7.40;;;;;;;;;;5002555;28;20042;-80
2023/08/05 06:36:07;;;;;;;16.05;7.20;;;;;;;;;;5017811;28;20046;-82
2023/08/05 06:38:52;;;;;;;10.95;7.35;;;;;;;;;;5017507;28;20049;-82
2023/08/05 06:41:38;;;;;;;11.45;7.25;;;;;;;;;;5017136;28;20050;-81
2023/08/05 06:44:23;;;;;;;18.05;7.70;;;;;;;;;;5024048;28;20041;-82
2023/08/05 06:47:12;;;;;;;10.73;7.60;;;;;;;;;;5017811;28;20410;-86
2023/08/05 06:49:58;;;;;;;9.90;6.90;;;;;;;;;;5023829;28;20049;-84
2023/08/05 06:52:43;;;;;;;15.05;6.65;;;;;;;;;;5008946;28;20041;-80
2023/08/05 06:55:29;;;;;;;11.45;6.18;;;;;;;;;;5016998;28;20034;-81
2023/08/05 06:58:14;;;;;;;10.85;7.05;;;;;;;;;;5016664;28;20058;-80
2023/08/05 07:01:00;;;;;;;12.70;6.75;;;;;;;;;;5023425;28;20049;-80
2023/08/05 07:03:45;;;;;;;10.68;6.78;;;;;;;;;;5017291;28;20046;-79
2023/08/05 07:06:31;;;;;;;12.05;6.05;;;;;;;;;;5016270;28;20046;-80
2023/08/05 07:09:17;;;;;;;11.73;6.40;;;;;;;;;;4994895;28;20053;-82
2023/08/05 07:12:03;;;;;;;10.38;6.25;;;;;;;;;;5008510;28;20041;-83
2023/08/05 07:14:48;;;;;;;11.63;6.32;;;;;;;;;;5016668;28;20061;-83
2023/08/05 07:17:35;;;;;;;9.65;6.57;;;;;;;;;;5009458;28;20042;-86
2023/08/05 07:20:20;;;;;;;8.25;6.18;;;;;;;;;;5035856;28;20050;-81
2023/08/05 07:23:06;;;;;;;11.23;6.82;;;;;;;;;;5036008;28;20049;-77
2023/08/05 07:25:52;;;;;;;12.95;7.07;;;;;;;;;;5042605;28;20045;-76
2023/08/05 07:28:37;;;;;;;15.70;7.30;;;;;;;;;;5041818;28;20045;-76
2023/08/05 07:31:22;;;;;;;14.23;7.07;;;;;;;;;;5033636;28;20041;-77
2023/08/05 07:34:09;;;;;;;8.30;6.30;;;;;;;;;;5032000;28;20037;-78
2023/08/05 07:36:55;;;;;;;10.90;6.95;;;;;;;;;;5033869;28;20049;-80
2023/08/05 07:39:46;;;;;;;12.38;6.55;;;;;;;;;;5033886;28;20642;-78
2023/08/05 07:42:32;;;;;;;12.70;6.00;;;;;;;;;;5034463;28;20049;-79
2023/08/05 07:45:21;;;;;;;7.68;6.32;;;;;;;;;;5035236;28;20045;-79
2023/08/05 07:48:10;;;;;;;11.95;6.70;;;;;;;;;;5027250;28;20049;-77
2023/08/05 07:50:59;;;;;;;12.05;7.00;;;;;;;;;;5041975;28;20041;-78
2023/08/05 07:53:47;;;;;;;9.38;7.18;;;;;;;;;;5035560;28;20053;-77
2023/08/05 07:56:35;;;;;;;12.23;6.55;;;;;;;;;;5042228;28;20038;-78
2023/08/05 07:59:20;;;;;;;14.32;7.28;;;;;;;;;;5035225;28;20414;-77
2023/08/05 08:02:10;;;;;;;12.43;6.95;;;;;;;;;;5035517;28;20045;-77
2023/08/05 08:04:57;;;;;;;14.27;7.22;;;;;;;;;;5035198;28;20041;-76
2023/08/05 08:07:46;;;;;;;11.13;6.82;;;;;;;;;;5035356;28;20414;-78
2023/08/05 08:10:31;;;;;;;9.30;6.60;;;;;;;;;;5038461;28;20049;-79
2023/08/05 08:13:17;;;;;;;11.35;7.10;;;;;;;;;;5035029;28;20049;-79
2023/08/05 08:16:03;;;;;;;11.50;6.90;;;;;;;;;;5040690;28;20037;-78
2023/08/05 08:18:49;;;;;;;9.90;5.70;;;;;;;;;;5037700;28;20049;-78
2023/08/05 08:21:34;;;;;;;12.65;6.13;;;;;;;;;;5020282;28;20375;-79
2023/08/05 08:24:19;;;;;;;8.02;5.57;;;;;;;;;;5014421;28;20037;-78
2023/08/05 08:27:05;;;;;;;10.48;5.97;;;;;;;;;;5020751;28;20049;-78
2023/08/05 08:29:51;;;;;;;9.65;5.38;;;;;;;;;;5021704;28;20046;-79
2023/08/05 08:32:36;;;;;;;9.38;5.15;;;;;;;;;;5021398;28;20046;-79
2023/08/05 08:35:22;;;;;;;6.82;5.55;;;;;;;;;;5036571;28;20050;-79
2023/08/05 08:38:07;;;;;;;8.00;5.53;;;;;;;;;;5021068;28;20038;-79
2023/08/05 08:41:03;;;;;;;11.20;5.60;;;;;;;;;;5015199;28;20049;-80
2023/08/05 08:43:50;;;;;;;14.73;5.82;;;;;;;;;;5014706;28;20475;-78
2023/08/05 08:46:37;;;;;;;14.30;5.82;;;;;;;;;;5014767;28;20041;-79
2023/08/05 08:49:23;;;;;;;9.50;5.30;;;;;;;;;;5014987;28;20053;-80
2023/08/05 08:52:12;;;;;;;7.30;5.05;;;;;;;;;;5014572;28;20042;-81
2023/08/05 08:54:57;;;;;;;9.25;5.40;;;;;;;;;;5014548;28;20054;-80
2023/08/05 08:57:43;;;;;;;7.45;5.60;;;;;;;;;;5021260;28;20041;-80
2023/08/05 09:00:31;;;;;;;8.93;4.95;;;;;;;;;;5006451;28;20050;-79
2023/08/05 09:03:18;;;;;;;8.98;4.82;;;;;;;;;;5014938;28;20053;-80
2023/08/05 09:06:04;;;;;;;9.05;5.50;;;;;;;;;;5021415;28;20053;-78
2023/08/05 09:08:50;;;;;;;11.73;5.18;;;;;;;;;;5020629;28;20041;-77
2023/08/05 09:11:36;;;;;;;7.93;5.15;;;;;;;;;;5020758;28;20491;-77
2023/08/05 09:14:21;;;;;;;6.90;4.85;;;;;;;;;;5020673;28;20395;-78
2023/08/05 09:17:07;;;;;;;9.20;5.32;;;;;;;;;;5020775;28;20480;-77
2023/08/05 09:19:52;;;;;;;7.13;5.15;;;;;;;;;;5014174;28;20403;-76
2023/08/05 09:22:38;;;;;;;7.28;4.72;;;;;;;;;;5040550;28;20041;-77
2023/08/05 09:25:25;;;;;;;13.52;5.55;;;;;;;;;;5019005;28;20045;-77
2023/08/05 09:28:10;;;;;;;8.32;5.75;;;;;;;;;;5033892;28;20394;-76
2023/08/05 09:31:16;;;;;;;8.30;5.03;;;;;;;;;;5040164;28;20041;-77
2023/08/05 09:34:04;;;;;;;7.32;5.03;;;;;;;;;;5040686;28;20053;-77
2023/08/05 09:36:52;;;;;;;9.35;5.25;;;;;;;;;;5033602;28;20030;-76
2023/08/05 09:39:45;;;;;;;8.98;4.68;;;;;;;;;;5040340;28;20037;-77
2023/08/05 09:42:31;;;;;;;12.88;5.40;;;;;;;;;;5033538;28;20049;-77
2023/08/05 09:45:18;;;;;;;7.22;4.88;;;;;;;;;;5040279;28;20045;-77
2023/08/05 09:48:04;;;;;;;7.72;5.20;;;;;;;;;;5040286;28;20049;-77
2023/08/05 09:50:50;;;;;;;6.55;5.00;;;;;;;;;;5039929;28;20053;-76
2023/08/05 09:53:39;;;;;;;8.50;4.68;;;;;;;;;;5040656;28;20045;-78
2023/08/05 09:56:25;;;;;;;7.00;4.85;;;;;;;;;;5032570;28;20037;-79
2023/08/05 09:59:17;;;;;;;5.47;4.40;;;;;;;;;;5034882;28;20045;-83
2023/08/05 10:02:02;;;;;;;7.30;4.57;;;;;;;;;;5034198;28;20049;-80
2023/08/05 10:04:51;;;;;;;9.85;4.88;;;;;;;;;;5040065;28;20491;-78
2023/08/05 10:07:39;;;;;;;8.93;4.40;;;;;;;;;;5040199;28;20057;-79
2023/08/05 10:10:25;;;;;;;9.10;4.53;;;;;;;;;;5033550;28;20041;-79
2023/08/05 10:13:17;;;;;;;7.88;3.88;;;;;;;;;;5032527;28;20045;-79
2023/08/05 10:16:08;;;;;;;5.85;4.18;;;;;;;;;;5033735;28;20038;-80
2023/08/05 10:18:54;;;;;;;7.50;4.30;;;;;;;;;;5032625;28;20046;-76
2023/08/05 10:21:44;;;;;;;17.58;5.88;;;;;;;;;;5019978;28;20045;-78
2023/08/05 10:24:58;;;;;;;6.50;4.70;;;;;;;;;;5019887;28;20045;-77
2023/08/05 10:27:44;;;;;;;6.50;4.25;;;;;;;;;;5013831;28;20050;-77
2023/08/05 10:30:30;;;;;;;11.77;4.90;;;;;;;;;;5020051;28;20046;-77
2023/08/05 10:33:16;;;;;;;7.47;4.28;;;;;;;;;;5013109;28;20034;-77
2023/08/05 10:36:03;;;;;;;7.05;3.83;;;;;;;;;;5019810;28;20038;-75
2023/08/05 10:38:48;;;;;;;4.25;3.85;;;;;;;;;;5013256;28;20042;-78
2023/08/05 10:41:37;;;;;;;4.93;3.58;;;;;;;;;;5019820;28;20471;-77
2023/08/05 10:44:35;;;;;;;6.35;3.47;;;;;;;;;;5013472;28;20042;-77
2023/08/05 10:47:23;;;;;;;4.43;3.35;;;;;;;;;;5013085;28;20403;-77
2023/08/05 10:50:14;;;;;;;4.05;3.17;;;;;;;;;;5026245;28;20041;-77
2023/08/05 10:53:12;;;;;;;6.78;3.50;;;;;;;;;;5031442;28;20037;-78
2023/08/05 10:55:57;;;;;;;7.35;3.35;;;;;;;;;;5020083;28;20042;-78
2023/08/05 10:58:45;;;;;;;7.32;4.18;;;;;;;;;;5020052;28;20475;-77
2023/08/05 11:01:55;;;;;;;7.80;3.80;;;;;;;;;;5012932;28;20038;-78
2023/08/05 11:04:41;;;;;;;4.40;3.25;;;;;;;;;;5019872;28;20046;-76
2023/08/05 11:07:26;;;;;;;5.50;3.40;;;;;;;;;;5020466;28;20046;-80
2023/08/05 11:10:12;;;;;;;13.38;5.25;;;;;;;;;;5021894;28;20054;-79
2023/08/05 11:12:58;;;;;;;7.50;4.88;;;;;;;;;;5016993;28;20475;-80
2023/08/05 11:16:19;;;;;;;5.15;3.30;;;;;;;;;;5008495;28;20395;-79
2023/08/05 11:19:07;;;;;;;5.72;3.10;;;;;;;;;;4999758;28;20058;-79
2023/08/05 11:21:52;;;;;;;5.43;2.85;;;;;;;;;;5041852;28;20045;-76
2023/08/05 11:24:38;;;;;;;7.75;2.60;;;;;;;;;;5036539;28;20041;-76
2023/08/05 11:27:32;;;;;;;3.08;2.47;;;;;;;;;;5035751;28;20049;-76
2023/08/05 11:30:19;;;;;;;6.50;2.63;;;;;;;;;;5042787;28;20045;-76
2023/08/05 11:33:05;;;;;;;3.28;2.60;;;;;;;;;;5042937;28;20041;-79
2023/08/05 11:35:53;;;;;;;4.22;2.60;;;;;;;;;;5037402;28;20049;-80
2023/08/05 11:38:39;;;;;;;5.93;2.92;;;;;;;;;;5042338;28;20053;-81
2023/08/05 11:41:24;;;;;;;9.63;3.58;;;;;;;;;;5042546;28;20053;-78
2023/08/05 11:44:09;;;;;;;8.27;2.70;;;;;;;;;;5042887;28;20479;-80
2023/08/05 11:47:03;;;;;;;8.07;2.58;;;;;;;;;;5042240;28;20041;-76
2023/08/05 11:49:54;;;;;;;32.50;2.90;;;;;;;;;;5035603;28;20045;-75
2023/08/05 11:52:40;;;;;;;6.90;2.03;;;;;;;;;;5035652;28;20045;-78
2023/08/05 11:55:33;;;;;;;6.72;2.00;;;;;;;;;;5035519;28;20399;-77
2023/08/05 11:58:20;;;;;;;9.45;2.10;;;;;;;;;;5035716;28;20041;-77
2023/08/05 12:01:05;;;;;;;7.25;1.83;;;;;;;;;;5042076;28;20049;-77
2023/08/05 12:03:50;;;;;;;10.27;1.65;;;;;;;;;;5041982;28;20045;-77
2023/08/05 12:06:36;;;;;;;5.68;1.67;;;;;;;;;;5035103;28;20480;-77
2023/08/05 12:09:22;;;;;;;15.90;1.50;;;;;;;;;;5041830;28;20049;-77
2023/08/05 12:12:15;;;;;;;5.63;1.63;;;;;;;;;;5042158;28;20475;-77
2023/08/05 12:15:31;;;;;;;8.27;3.58;;;;;;;;;;5041933;28;20045;-77
2023/08/05 12:18:17;;;;;;;8.60;4.22;;;;;;;;;;5033752;28;20037;-79
2023/08/05 12:21:02;;;;;;;3.22;2.03;;;;;;;;;;5041407;28;20482;-77
2023/08/05 12:23:48;;;;;;;5.07;1.63;;;;;;;;;;5040606;28;20041;-76
2023/08/05 12:26:34;;;;;;;2.58;1.00;;;;;;;;;;5034959;28;20041;-77
2023/08/05 12:29:20;;;;;;;9.77;1.52;;;;;;;;;;5035379;28;20053;-77
2023/08/05 12:32:06;;;;;;;2.90;1.13;;;;;;;;;;5035091;28;20057;-79
2023/08/05 12:34:51;;;;;;;6.18;2.03;;;;;;;;;;5041376;28;20053;-77
2023/08/05 12:37:39;;;;;;;3.83;1.40;;;;;;;;;;5034374;28;20045;-75
2023/08/05 12:40:24;;;;;;;2.47;0.90;;;;;;;;;;5033961;28;20037;-78
2023/08/05 12:43:12;;;;;;;6.25;1.30;;;;;;;;;;5034466;28;20053;-77
2023/08/05 12:45:57;;;;;;;2.63;1.10;;;;;;;;;;5031652;28;20041;-78
2023/08/05 12:48:43;;;;;;;5.65;1.20;;;;;;;;;;5031485;28;20067;-78
2023/08/05 12:51:28;;;;;;;4.63;1.38;;;;;;;;;;5040179;28;20406;-78
2023/08/05 12:54:14;;;;;;;25.17;9.52;;;;;;;;;;5031593;28;20049;-77
2023/08/05 12:56:59;;;;;;;4.32;2.13;;;;;;;;;;5039019;28;20395;-78
2023/08/05 12:59:45;;;;;;;7.05;1.80;;;;;;;;;;5032774;28;20067;-78
2023/08/05 13:02:31;;;;;;;3.28;1.40;;;;;;;;;;5037768;28;20045;-78
2023/08/05 13:05:16;;;;;;;5.82;1.52;;;;;;;;;;5032748;28;20041;-77
2023/08/05 13:08:02;;;;;;;6.15;1.80;;;;;;;;;;5054773;28;20045;-78
2023/08/05 13:10:48;;;;;;;3.45;1.13;;;;;;;;;;5040671;28;20407;-77
2023/08/05 13:13:33;;;;;;;5.20;1.20;;;;;;;;;;5039331;28;20475;-77
2023/08/05 13:16:18;;;;;;;3.85;1.27;;;;;;;;;;5038182;28;20041;-78
2023/08/05 13:19:06;;;;;;;2.80;1.20;;;;;;;;;;5031684;28;20053;-79
2023/08/05 13:21:53;;;;;;;1.60;1.20;;;;;;;;;;5018124;28;20049;-77
2023/08/05 13:24:39;;;;;;;1.85;0.75;;;;;;;;;;5012277;28;20054;-77
2023/08/05 13:27:34;;;;;;;2.05;1.10;;;;;;;;;;5012490;28;20054;-78
2023/08/05 13:30:20;;;;;;;1.75;1.10;;;;;;;;;;5014197;28;20046;-78
2023/08/05 13:33:06;;;;;;;2.15;1.10;;;;;;;;;;5012822;28;20137;-82
2023/08/05 13:35:52;;;;;;;2.55;1.00;;;;;;;;;;5018034;28;20522;-77
2023/08/05 13:38:37;;;;;;;1.85;1.00;;;;;;;;;;5011769;28;20050;-77
2023/08/05 13:41:23;;;;;;;2.30;1.08;;;;;;;;;;5018858;28;20045;-77
2023/08/05 13:44:08;;;;;;;1.67;1.20;;;;;;;;;;5018792;28;20484;-77
2023/08/05 13:46:54;;;;;;;1.35;1.20;;;;;;;;;;5011704;28;20484;-77
2023/08/05 13:49:40;;;;;;;1.25;1.15;;;;;;;;;;5011555;28;20049;-77
2023/08/05 13:52:33;;;;;;;3.55;1.27;;;;;;;;;;5008883;28;20054;-82
2023/08/05 13:55:19;;;;;;;3.78;1.23;;;;;;;;;;5008862;28;20149;-78
2023/08/05 13:58:05;;;;;;;4.25;1.40;;;;;;;;;;5009818;28;20045;-78
2023/08/05 14:00:52;;;;;;;1.98;1.30;;;;;;;;;;5015802;28;20046;-78
2023/08/05 14:03:37;;;;;;;6.20;1.40;;;;;;;;;;5009201;28;20046;-77
2023/08/05 14:06:23;;;;;;;2.33;1.40;;;;;;;;;;4993961;28;20046;-77
2023/08/05 14:09:09;;;;;;;1.88;1.27;;;;;;;;;;5015439;28;20049;-77
2023/08/05 14:11:54;;;;;;;5.03;4.05;;;;;;;;;;5015775;28;20049;-78
2023/08/05 14:14:40;;;;;;;2.85;1.52;;;;;;;;;;5009153;28;20470;-79
2023/08/05 14:17:25;;;;;;;2.38;1.48;;;;;;;;;;4994574;28;20041;-80
2023/08/05 14:20:11;;;;;;;7.13;5.05;;;;;;;;;;5023620;28;20045;-78
2023/08/05 14:22:56;;;;;;;5.40;3.78;;;;;;;;;;5035655;28;20053;-78
2023/08/05 14:25:43;;;;;;;5.45;2.72;;;;;;;;;;5036165;28;20479;-82
2023/08/05 14:28:29;;;;;;;2.00;1.10;;;;;;;;;;5030008;28;20057;-80
2023/08/05 14:31:14;;;;;;;14.48;9.05;;;;;;;;;;5027568;28;20050;-79
2023/08/05 14:34:00;;;;;;;5.55;3.55;;;;;;;;;;5027923;28;20418;-78
2023/08/05 14:37:04;;;;;;;2.45;1.63;;;;;;;;;;5028520;28;20045;-80
2023/08/05 14:39:52;;;;;;;7.45;2.25;;;;;;;;;;5029130;28;20045;-79
2023/08/05 14:42:38;;;;;;;8.38;3.20;;;;;;;;;;5017440;28;20466;-79
2023/08/05 14:45:26;;;;;;;12.05;3.08;;;;;;;;;;5040200;28;20049;-80
2023/08/05 14:48:12;;;;;;;4.75;2.10;;;;;;;;;;5034323;28;20491;-77
2023/08/05 14:51:04;;;;;;;4.25;1.80;;;;;;;;;;5035063;28;20053;-81
2023/08/05 14:53:49;;;;;;;11.50;7.68;;;;;;;;;;5041762;28;20037;-76
2023/08/05 14:56:34;;;;;;;5.70;3.60;;;;;;;;;;5041665;28;20049;-77
2023/08/05 14:59:20;;;;;;;4.55;2.40;;;;;;;;;;5041755;28;20057;-79
2023/08/05 15:02:07;;;;;;;6.80;4.03;;;;;;;;;;5033094;28;20406;-80
2023/08/05 15:04:52;;;;;;;5.35;3.95;;;;;;;;;;5033461;28;20041;-80
2023/08/05 15:07:38;;;;;;;3.35;1.42;;;;;;;;;;5033196;28;20658;-80
2023/08/05 15:10:26;;;;;;;6.15;1.85;;;;;;;;;;5039817;28;20041;-79
2023/08/05 15:13:11;;;;;;;4.72;2.00;;;;;;;;;;5033639;28;20048;-79
2023/08/05 15:15:58;;;;;;;3.40;1.70;;;;;;;;;;5033731;28;20057;-76
2023/08/05 15:18:44;;;;;;;4.80;2.00;;;;;;;;;;5035089;28;20045;-76
2023/08/05 15:21:30;;;;;;;11.88;2.95;;;;;;;;;;5019805;28;20049;-76
2023/08/05 15:24:17;;;;;;;7.00;2.53;;;;;;;;;;5037651;28;20041;-77
2023/08/05 15:27:03;;;;;;;7.20;2.38;;;;;;;;;;5038906;28;20041;-74
2023/08/05 15:29:57;;;;;;;13.93;3.15;;;;;;;;;;5034394;28;20495;-73
2023/08/05 15:32:42;;;;;;;13.02;3.67;;;;;;;;;;5032947;28;20037;-73
2023/08/05 15:35:43;;;;;;;11.65;3.22;;;;;;;;;;5034462;28;20399;-76
2023/08/05 15:38:31;;;;;;;11.15;3.45;;;;;;;;;;5035128;28;20045;-78
2023/08/05 15:45:05;;;;;;;7.65;2.60;;;;;;;;;;5034782;28;20041;-77
2023/08/05 15:47:50;;;;;;;5.88;1.95;;;;;;;;;;5034585;28;20041;-74
2023/08/05 15:50:35;;;;;;;5.55;2.38;;;;;;;;;;5033906;28;20045;-74
2023/08/05 15:53:21;;;;;;;9.05;3.33;;;;;;;;;;5040687;28;20053;-76
2023/08/05 15:56:10;;;;;;;7.32;2.80;;;;;;;;;;5041418;28;20037;-77
2023/08/05 15:58:55;;;;;;;5.38;2.67;;;;;;;;;;5040081;28;20045;-76
2023/08/05 16:01:41;;;;;;;7.53;2.90;;;;;;;;;;5033797;28;20403;-74
2023/08/05 16:04:26;;;;;;;9.40;3.30;;;;;;;;;;5040065;28;20655;-76
2023/08/05 16:07:12;;;;;;;4.88;2.33;;;;;;;;;;5039120;28;20049;-75
2023/08/05 16:09:57;;;;;;;5.68;2.40;;;;;;;;;;5033828;28;20041;-76
2023/08/05 16:12:43;;;;;;;5.57;2.50;;;;;;;;;;5035697;28;20041;-77
2023/08/05 16:15:28;;;;;;;5.63;2.42;;;;;;;;;;5020580;28;20050;-76
2023/08/05 16:18:13;;;;;;;4.07;2.05;;;;;;;;;;5026621;28;20045;-76
2023/08/05 16:21:19;;;;;;;6.38;2.22;;;;;;;;;;5034860;28;20045;-76
2023/08/05 16:24:05;;;;;;;10.27;2.50;;;;;;;;;;5035196;28;20049;-76
2023/08/05 16:26:50;;;;;;;9.95;3.42;;;;;;;;;;5035257;28;20475;-78
2023/08/05 16:29:36;;;;;;;13.10;5.32;;;;;;;;;;5042080;28;20387;-78
2023/08/05 16:32:21;;;;;;;4.95;2.10;;;;;;;;;;5041707;28;20053;-77
2023/08/05 16:35:07;;;;;;;6.95;2.90;;;;;;;;;;5035486;28;20490;-80
2023/08/05 16:37:56;;;;;;;6.15;2.58;;;;;;;;;;5034785;28;20038;-80